Time;durP1;ratioP1;P1;durP2;ratioP2;P2;SDS_P1;SDS_P2;PMS_P1;PMS_P2;Temp;Humidity;BMP_temperature;BMP_pressure;BME280_temperature;BME280_humidity;BME280_pressure;Samples;Min_cycle;Max_cycle;Signal;HPM_P1;HPM_P2
2023/09/20 00:13:48;;;;;;;8.53;7.63;;;12.90;99.90;;;;;;4739437;29;20282;-82
2023/09/20 00:38:53;;;;;;;9.77;8.00;;;12.80;99.90;;;;;;4620825;29;20283;-84
2023/09/20 01:09:29;;;;;;;8.90;7.00;;;12.50;99.90;;;;;;4617631;29;20212;-82
2023/09/20 02:15:23;;;;;;;9.77;7.17;;;12.10;99.90;;;;;;4849905;28;20238;-85
2023/09/20 03:15:43;;;;;;;10.93;7.37;;;11.50;99.90;;;;;;4591338;29;21025;-85
2023/09/20 03:36:16;;;;;;;10.07;8.23;;;11.10;99.90;;;;;;4657592;29;20803;-83
2023/09/20 04:06:26;;;;;;;15.43;10.03;;;10.90;99.90;;;;;;4505827;30;20877;-83
2023/09/20 04:42:22;;;;;;;11.33;10.13;;;10.90;99.90;;;;;;4660553;29;20228;-83
2023/09/20 05:08:00;;;;;;;12.67;10.90;;;11.50;99.90;;;;;;4730949;29;20207;-86
2023/09/20 05:12:21;;;;;;;17.33;12.03;;;11.60;99.90;;;;;;4699707;29;20376;-84
2023/09/20 05:32:50;;;;;;;14.50;12.43;;;12.60;99.90;;;;;;4741917;29;20416;-85
2023/09/20 05:53:21;;;;;;;15.10;10.30;;;13.20;99.90;;;;;;4697971;29;20261;-82
2023/09/20 06:43:44;;;;;;;8.93;8.00;;;16.00;99.90;;;;;;4511388;30;20235;-82
2023/09/20 07:14:20;;;;;;;7.10;6.00;;;17.70;99.90;;;;;;4761240;29;20732;-85
2023/09/20 07:35:03;;;;;;;11.17;6.20;;;18.60;98.90;;;;;;4690421;29;20244;-87
2023/09/20 07:55:13;;;;;;;6.73;4.60;;;19.20;98.20;;;;;;4668073;29;20246;-83
2023/09/20 08:20:48;;;;;;;4.63;3.70;;;19.60;92.40;;;;;;4717959;29;20205;-87
2023/09/20 09:16:38;;;;;;;4.10;3.30;;;20.20;72.80;;;;;;4714587;29;20283;-86
2023/09/20 09:20:58;;;;;;;8.63;4.13;;;20.30;72.00;;;;;;4660779;29;20621;-81
2023/09/20 09:46:57;;;;;;;6.00;3.10;;;20.60;65.70;;;;;;4825066;28;20240;-85
2023/09/20 10:12:23;;;;;;;4.47;3.20;;;20.80;63.90;;;;;;4788876;28;20595;-86
2023/09/20 10:47:58;;;;;;;5.53;3.15;;;21.20;61.40;;;;;;4837863;28;20327;-85
2023/09/20 10:52:19;;;;;;;5.30;2.83;;;21.20;61.80;;;;;;4792013;28;20293;-85
2023/09/20 11:13:02;;;;;;;4.00;2.65;;;21.60;61.50;;;;;;4676669;29;20284;-85
2023/09/20 11:33:28;;;;;;;3.58;2.60;;;22.10;60.70;;;;;;4620249;29;20399;-84
2023/09/20 11:58:52;;;;;;;6.10;2.70;;;22.30;60.80;;;;;;4797600;29;20298;-87
2023/09/20 12:28:43;;;;;;;5.43;2.25;;;22.80;60.10;;;;;;4807676;28;20542;-85
2023/09/20 12:44:41;;;;;;;7.30;2.55;;;23.10;60.40;;;;;;4827526;29;20293;-85
2023/09/20 12:49:01;;;;;;;4.05;2.60;;;23.10;60.20;;;;;;4819393;29;20548;-85
2023/09/20 13:09:22;;;;;;;2.42;2.22;;;23.50;60.00;;;;;;4734859;29;20404;-81
2023/09/20 13:30:21;;;;;;;5.30;2.60;;;23.70;58.20;;;;;;4668348;29;20221;-83
2023/09/20 13:34:41;;;;;;;2.30;2.10;;;23.80;58.70;;;;;;4546721;30;20662;-86
2023/09/20 13:55:40;;;;;;;2.35;2.03;;;23.30;58.40;;;;;;4762732;29;20280;-82
2023/09/20 14:20:47;;;;;;;4.50;2.60;;;23.70;59.20;;;;;;4823342;28;21018;-84
2023/09/20 14:41:12;;;;;;;5.60;2.45;;;23.10;60.20;;;;;;4644491;30;20243;-85
2023/09/20 15:21:47;;;;;;;4.60;2.40;;;22.10;60.40;;;;;;4674823;30;20857;-86
2023/09/20 15:46:34;;;;;;;4.03;2.65;;;21.00;65.40;;;;;;4764487;29;20751;-85
2023/09/20 16:12:09;;;;;;;5.07;2.83;;;20.10;81.70;;;;;;4713110;29;20529;-84
2023/09/20 16:48:07;;;;;;;4.70;3.37;;;18.20;94.50;;;;;;4906288;28;20747;-83
2023/09/20 17:18:34;;;;;;;8.87;4.40;;;16.80;99.90;;;;;;4909294;28;20478;-84
2023/09/20 17:38:51;;;;;;;9.93;4.33;;;16.20;99.90;;;;;;4866495;28;20199;-84
2023/09/20 17:58:40;;;;;;;6.47;5.30;;;15.80;99.90;;;;;;4623595;30;20555;-84
2023/09/20 18:44:36;;;;;;;15.43;8.00;;;14.80;99.90;;;;;;4676537;29;20661;-83
2023/09/20 19:09:43;;;;;;;14.47;9.30;;;14.50;99.90;;;;;;4568205;30;20730;-84
2023/09/20 19:40:34;;;;;;;15.20;9.97;;;14.30;99.90;;;;;;4701530;29;20230;-84
2023/09/20 20:05:50;;;;;;;19.20;11.97;;;13.80;99.90;;;;;;4725296;29;20212;-84
2023/09/20 20:31:10;;;;;;;17.17;11.07;;;13.70;99.90;;;;;;4668715;30;20206;-83
2023/09/20 20:51:40;;;;;;;20.10;10.87;;;13.60;99.90;;;;;;4748127;29;20229;-83
2023/09/20 20:55:59;;;;;;;14.13;10.87;;;13.50;99.90;;;;;;4718409;29;20621;-82
2023/09/20 21:16:41;;;;;;;16.20;11.40;;;13.40;99.90;;;;;;4928877;28;20219;-85
2023/09/20 21:36:56;;;;;;;18.83;11.73;;;13.10;99.90;;;;;;4792731;29;20218;-85
2023/09/20 21:57:23;;;;;;;18.00;12.97;;;13.20;99.90;;;;;;4754109;29;20304;-83
2023/09/20 22:42:45;;;;;;;21.40;15.93;;;12.70;99.90;;;;;;4645425;29;20663;-84
2023/09/20 23:53:59;;;;;;;20.73;16.17;;;12.00;99.90;;;;;;4768938;29;20498;-83
